Airfield :
LOGIN :

Register | Disclaimer

   EN    FR    IT 

 










Legend :    VFR   Marginal VFR   IFR   Intensive IFR   Very Intensive IFR
Visi :
Ceiling :
>= 8 km
>= 3000ft
5 to 8 km
1000 to 3000 ft
1500m to 5 km
500 to 1000 ft
800 to 1500m
200 to 500 ft
< 800m
< 200 ft
Symbols :   Thunderstorms  Fog  Heavy snow  Heavy precipitations  Wind > 20 kt
SIGMETs :     Misc.  Thunderstorms  Icing  Turbulence  Mountain Waves  Volcanic Ashes







- Airport Elevation : 1300 ft
- IATA code : LIG
- Download approach charts


LFBL - Limoges

CURRENT METAR :
  • 240830Z AUTO 31005KT 280V010 9999 SCT023 18/11 Q1023 NOSIG

EXPIRED METARs :
  • 240800Z AUTO 30004KT 230V030 9999 FEW022 17/11 Q1023 NOSIG
  • 240730Z AUTO 32005KT 270V010 CAVOK 16/11 Q1023 NOSIG
  • 240700Z AUTO 32005KT 270V350 CAVOK 16/11 Q1023 NOSIG
  • 240630Z AUTO 30004KT 250V360 CAVOK 15/12 Q1023 NOSIG
  • 240600Z AUTO VRB03KT CAVOK 14/12 Q1023 NOSIG
  • 240530Z AUTO VRB02KT CAVOK 13/12 Q1023 NOSIG

TAF TAF LFBL
Valid from the 23 at 18:00 until the 24 at 18:00 UTC


231700Z 2318/2418 27007KT 9999 BKN025
ATIS : +33 5 55 48 40 37
No reported NOTAMs for that airfield.



MET'MAP, your aeronautical weather chart ! - Copyright ORBIFLY December 2007 - Disclaimer

ORBIFLY MET'MAP TEAM :

Programming & Development : Alexandra Zaïnal
Concept & Development : Baudouin d'Aumeries
Co-Development & Prog : Marc-Olivier Méhu
Technical & hardware support : Manuel Goepfert

Contact : metmap@orbifly.com




SOURCES & CREDITS :

   NOAA